Time;durP1;ratioP1;P1;durP2;ratioP2;P2;SDS_P1;SDS_P2;PMS_P1;PMS_P2;Temp;Humidity;BMP_temperature;BMP_pressure;BME280_temperature;BME280_humidity;BME280_pressure;Samples;Min_cycle;Max_cycle;Signal;HPM_P1;HPM_P2
2022/11/15 00:01:44;;;;;;;7.85;5.57;;;;;;;;;;5092490;28;20044;-79
2022/11/15 00:04:10;;;;;;;8.02;5.65;;;;;;;;;;5092319;28;20028;-80
2022/11/15 00:06:35;;;;;;;7.70;5.50;;;;;;;;;;5092331;28;20035;-80
2022/11/15 00:09:01;;;;;;;13.27;5.90;;;;;;;;;;5074513;28;20078;-79
2022/11/15 00:11:26;;;;;;;16.92;6.75;;;;;;;;;;5092045;28;20028;-79
2022/11/15 00:13:55;;;;;;;9.65;6.18;;;;;;;;;;5091052;28;20102;-79
2022/11/15 00:16:21;;;;;;;9.63;6.20;;;;;;;;;;5093833;28;20436;-77
2022/11/15 00:18:46;;;;;;;9.60;5.78;;;;;;;;;;5095936;28;20028;-79
2022/11/15 00:21:13;;;;;;;8.60;5.97;;;;;;;;;;5095831;28;20028;-79
2022/11/15 00:23:38;;;;;;;9.27;6.30;;;;;;;;;;5077364;28;20068;-80
2022/11/15 00:26:03;;;;;;;8.75;6.13;;;;;;;;;;5094577;28;20028;-79
2022/11/15 00:28:29;;;;;;;10.63;6.32;;;;;;;;;;5096035;28;20056;-80
2022/11/15 00:31:03;;;;;;;11.60;6.25;;;;;;;;;;5077704;28;20035;-80
2022/11/15 00:33:28;;;;;;;;;;;;;;;;;;5094892;28;20486;-78
2022/11/15 00:35:53;;;;;;;7.85;5.55;;;;;;;;;;5095045;28;19912;-79
2022/11/15 00:38:19;;;;;;;9.00;6.30;;;;;;;;;;5094433;28;20032;-79
2022/11/15 00:40:44;;;;;;;8.00;5.82;;;;;;;;;;5095799;28;20035;-79
2022/11/15 00:43:10;;;;;;;8.45;6.03;;;;;;;;;;5094216;28;20043;-79
2022/11/15 00:45:35;;;;;;;9.00;6.10;;;;;;;;;;5095709;28;20055;-80
2022/11/15 00:48:00;;;;;;;9.20;6.40;;;;;;;;;;5094251;28;20028;-79
2022/11/15 00:50:26;;;;;;;9.13;5.63;;;;;;;;;;5095097;28;20032;-80
2022/11/15 00:52:51;;;;;;;7.88;5.88;;;;;;;;;;5095305;28;20035;-79
2022/11/15 00:55:17;;;;;;;9.77;6.65;;;;;;;;;;5095544;28;20513;-80
2022/11/15 00:57:43;;;;;;;10.18;6.40;;;;;;;;;;5093669;28;20024;-79
2022/11/15 01:00:09;;;;;;;10.45;6.05;;;;;;;;;;5095700;28;20039;-79
2022/11/15 01:02:34;;;;;;;10.90;6.40;;;;;;;;;;5076972;28;20143;-79
2022/11/15 01:04:59;;;;;;;8.73;6.07;;;;;;;;;;5095387;28;20066;-79
2022/11/15 01:07:25;;;;;;;9.57;6.22;;;;;;;;;;5093609;28;20435;-79
2022/11/15 01:09:50;;;;;;;9.45;6.15;;;;;;;;;;5093581;28;20028;-79
2022/11/15 01:12:15;;;;;;;11.20;6.90;;;;;;;;;;5076908;28;20411;-79
2022/11/15 01:14:41;;;;;;;10.82;6.22;;;;;;;;;;5093539;28;20025;-79
2022/11/15 01:17:06;;;;;;;10.10;6.38;;;;;;;;;;5095127;28;20048;-79
2022/11/15 01:19:31;;;;;;;10.70;6.18;;;;;;;;;;5093465;28;20024;-78
2022/11/15 01:21:57;;;;;;;10.07;6.32;;;;;;;;;;5094752;28;20036;-79
2022/11/15 01:24:22;;;;;;;10.43;6.40;;;;;;;;;;5094468;28;20506;-79
2022/11/15 01:26:47;;;;;;;9.68;6.45;;;;;;;;;;5075179;28;20039;-79
2022/11/15 01:29:13;;;;;;;16.70;6.78;;;;;;;;;;5076486;28;20032;-80
2022/11/15 01:31:38;;;;;;;10.27;6.25;;;;;;;;;;5094910;28;20032;-79
2022/11/15 01:34:03;;;;;;;11.52;6.40;;;;;;;;;;5094817;28;20039;-80
2022/11/15 01:36:29;;;;;;;13.55;6.35;;;;;;;;;;5093669;28;20035;-79
2022/11/15 01:38:58;;;;;;;10.27;6.22;;;;;;;;;;5094336;28;20123;-79
2022/11/15 01:41:33;;;;;;;11.93;7.00;;;;;;;;;;5076307;28;20024;-80
2022/11/15 01:44:36;;;;;;;12.45;6.70;;;;;;;;;;5092704;28;20119;-80
2022/11/15 01:47:07;;;;;;;8.63;6.15;;;;;;;;;;5094203;28;20024;-79
2022/11/15 01:49:33;;;;;;;9.27;5.65;;;;;;;;;;5075789;28;20130;-80
2022/11/15 01:52:00;;;;;;;9.77;5.40;;;;;;;;;;5093142;28;20020;-79
2022/11/15 01:54:26;;;;;;;12.65;6.10;;;;;;;;;;5075821;28;20036;-79
2022/11/15 01:56:54;;;;;;;10.25;6.05;;;;;;;;;;5095322;28;20042;-79
2022/11/15 01:59:19;;;;;;;10.35;5.90;;;;;;;;;;5093883;28;20077;-79
2022/11/15 02:01:45;;;;;;;10.70;6.25;;;;;;;;;;5092771;28;20028;-79
2022/11/15 02:04:17;;;;;;;9.15;6.07;;;;;;;;;;5092847;28;20059;-79
2022/11/15 02:06:43;;;;;;;9.48;5.70;;;;;;;;;;5092841;28;20065;-79
2022/11/15 02:09:09;;;;;;;9.65;6.22;;;;;;;;;;5075549;28;20024;-79
2022/11/15 02:11:34;;;;;;;16.38;5.90;;;;;;;;;;5075615;28;20036;-79
2022/11/15 02:14:01;;;;;;;9.30;5.28;;;;;;;;;;5092949;28;20111;-79
2022/11/15 02:16:32;;;;;;;7.00;5.30;;;;;;;;;;5075382;28;20418;-79
2022/11/15 02:19:19;;;;;;;8.75;5.65;;;;;;;;;;5093786;28;20047;-79
2022/11/15 02:21:54;;;;;;;9.57;5.70;;;;;;;;;;5092243;28;20063;-79
2022/11/15 02:24:34;;;;;;;8.57;5.38;;;;;;;;;;5075086;28;20147;-79
2022/11/15 02:27:37;;;;;;;11.05;5.82;;;;;;;;;;5092171;28;20070;-79
2022/11/15 02:30:19;;;;;;;8.77;5.35;;;;;;;;;;5093603;28;20026;-79
2022/11/15 02:33:03;;;;;;;7.53;5.47;;;;;;;;;;5092260;28;20024;-80
2022/11/15 02:35:37;;;;;;;7.53;4.70;;;;;;;;;;5092028;28;20107;-80
2022/11/15 02:38:12;;;;;;;11.25;5.10;;;;;;;;;;5092941;28;20081;-80
2022/11/15 02:41:05;;;;;;;10.80;5.18;;;;;;;;;;5074982;28;20027;-80
2022/11/15 02:43:56;;;;;;;7.57;5.10;;;;;;;;;;5071669;28;20125;-80
2022/11/15 02:47:12;;;;;;;9.27;5.55;;;;;;;;;;5077301;28;20034;-79
2022/11/15 02:49:14;;;;;;;8.43;5.10;;;;;;;;;;5092713;28;20031;-80
2022/11/15 02:51:40;;;;;;;8.85;5.43;;;;;;;;;;5092211;28;20016;-80
2022/11/15 02:54:06;;;;;;;8.18;5.13;;;;;;;;;;5091742;28;20099;-79
2022/11/15 02:56:31;;;;;;;7.75;5.13;;;;;;;;;;5093371;28;20190;-80
2022/11/15 02:59:13;;;;;;;8.65;4.97;;;;;;;;;;5092022;28;20032;-80
2022/11/15 03:01:52;;;;;;;7.57;4.78;;;;;;;;;;5074530;28;20500;-80
2022/11/15 03:04:34;;;;;;;10.00;5.40;;;;;;;;;;5092050;28;20354;-80
2022/11/15 03:07:34;;;;;;;7.68;5.13;;;;;;;;;;5093034;28;20027;-80
2022/11/15 03:10:07;;;;;;;7.82;5.10;;;;;;;;;;5091392;28;20505;-81
2022/11/15 03:12:38;;;;;;;6.82;4.70;;;;;;;;;;5074776;28;20032;-79
2022/11/15 03:15:12;;;;;;;7.78;5.38;;;;;;;;;;5092782;28;20470;-79
2022/11/15 03:18:01;;;;;;;8.20;4.68;;;;;;;;;;5074423;28;20024;-79
2022/11/15 03:20:27;;;;;;;6.85;4.50;;;;;;;;;;5091368;28;20028;-79
2022/11/15 03:22:54;;;;;;;6.07;4.63;;;;;;;;;;5092604;28;20390;-79
2022/11/15 03:25:22;;;;;;;7.90;5.07;;;;;;;;;;5091461;28;20040;-79
2022/11/15 03:27:51;;;;;;;6.45;4.50;;;;;;;;;;5091293;28;20044;-80
2022/11/15 03:30:17;;;;;;;10.50;5.00;;;;;;;;;;5074313;28;20020;-79
2022/11/15 03:32:56;;;;;;;7.18;4.70;;;;;;;;;;5091546;28;20530;-80
2022/11/15 03:35:23;;;;;;;9.25;5.25;;;;;;;;;;5091916;28;20020;-80
2022/11/15 03:37:51;;;;;;;8.35;5.20;;;;;;;;;;5091336;28;20059;-80
2022/11/15 03:40:17;;;;;;;6.03;4.60;;;;;;;;;;5092775;28;20024;-80
2022/11/15 03:42:49;;;;;;;7.13;4.75;;;;;;;;;;5074205;28;20059;-79
2022/11/15 03:45:18;;;;;;;7.10;4.30;;;;;;;;;;5092561;28;20031;-80
2022/11/15 03:47:54;;;;;;;6.25;4.55;;;;;;;;;;5074258;28;20024;-79
2022/11/15 03:50:21;;;;;;;8.63;4.72;;;;;;;;;;5075298;28;20024;-80
2022/11/15 03:52:47;;;;;;;8.27;4.50;;;;;;;;;;5095029;28;20043;-80
2022/11/15 03:55:18;;;;;;;6.85;4.43;;;;;;;;;;5061517;28;20115;-80
2022/11/15 03:57:44;;;;;;;6.93;4.82;;;;;;;;;;5095181;28;20462;-80
2022/11/15 04:00:10;;;;;;;5.15;4.22;;;;;;;;;;5095164;28;20024;-79
2022/11/15 04:02:36;;;;;;;6.88;4.75;;;;;;;;;;5078067;28;20032;-79
2022/11/15 04:05:01;;;;;;;7.38;4.88;;;;;;;;;;5096092;28;20088;-79
2022/11/15 04:07:27;;;;;;;7.75;4.90;;;;;;;;;;5077876;28;20050;-79
2022/11/15 04:10:07;;;;;;;7.63;4.45;;;;;;;;;;5094672;28;20405;-80
2022/11/15 04:12:40;;;;;;;4.95;4.05;;;;;;;;;;5065156;28;20031;-80
2022/11/15 04:15:08;;;;;;;5.60;4.57;;;;;;;;;;5094684;28;20076;-79
2022/11/15 04:17:42;;;;;;;8.15;4.57;;;;;;;;;;5077362;28;20042;-79
2022/11/15 04:25:41;;;;;;;6.90;4.05;;;;;;;;;;5095368;28;20082;-78
2022/11/15 04:28:06;;;;;;;12.55;4.60;;;;;;;;;;5094369;28;20047;-80
2022/11/15 04:30:32;;;;;;;8.00;4.50;;;;;;;;;;5095411;28;20498;-80
2022/11/15 04:32:57;;;;;;;8.40;4.32;;;;;;;;;;5094794;28;20442;-79
2022/11/15 04:35:22;;;;;;;5.45;3.90;;;;;;;;;;5078075;28;20090;-79
2022/11/15 04:37:48;;;;;;;6.60;3.97;;;;;;;;;;5094002;28;20024;-79
2022/11/15 04:40:13;;;;;;;10.98;4.95;;;;;;;;;;5095722;28;20156;-80
2022/11/15 04:42:41;;;;;;;6.75;4.50;;;;;;;;;;5094193;28;20031;-80
2022/11/15 04:45:07;;;;;;;7.03;4.20;;;;;;;;;;5094271;28;20110;-80
2022/11/15 04:47:32;;;;;;;6.78;3.92;;;;;;;;;;5095575;28;20497;-80
2022/11/15 04:49:58;;;;;;;8.85;4.82;;;;;;;;;;5077343;28;20033;-80
2022/11/15 04:52:23;;;;;;;6.60;4.47;;;;;;;;;;5078045;28;20077;-80
2022/11/15 04:54:48;;;;;;;5.60;4.18;;;;;;;;;;5093894;28;20539;-80
2022/11/15 04:57:14;;;;;;;5.70;3.95;;;;;;;;;;5096107;28;20374;-80
2022/11/15 04:59:39;;;;;;;6.97;4.53;;;;;;;;;;5077466;28;20312;-79
2022/11/15 05:02:04;;;;;;;8.45;4.45;;;;;;;;;;5076898;28;20036;-79
2022/11/15 05:04:30;;;;;;;5.72;4.10;;;;;;;;;;5077243;28;20521;-80
2022/11/15 05:06:55;;;;;;;10.70;4.47;;;;;;;;;;5094457;28;20458;-80
2022/11/15 05:09:20;;;;;;;15.18;6.07;;;;;;;;;;5094069;28;20047;-80
2022/11/15 05:11:46;;;;;;;14.32;5.40;;;;;;;;;;5094849;28;20032;-81
2022/11/15 05:14:12;;;;;;;10.52;5.18;;;;;;;;;;5095511;28;20036;-82
2022/11/15 05:16:37;;;;;;;13.57;5.97;;;;;;;;;;5093663;28;20170;-81
2022/11/15 05:19:13;;;;;;;12.38;5.30;;;;;;;;;;5100631;28;20039;-82
2022/11/15 05:21:39;;;;;;;9.60;4.70;;;;;;;;;;5079910;28;20069;-79
2022/11/15 05:24:05;;;;;;;9.82;5.20;;;;;;;;;;5094483;28;20052;-78
2022/11/15 05:26:30;;;;;;;15.07;5.20;;;;;;;;;;5093195;28;20024;-78
2022/11/15 05:28:57;;;;;;;8.73;5.00;;;;;;;;;;5093284;28;20024;-78
2022/11/15 05:31:23;;;;;;;10.48;4.70;;;;;;;;;;5093816;28;20036;-81
2022/11/15 05:33:51;;;;;;;14.25;5.03;;;;;;;;;;5059959;28;20036;-81
2022/11/15 05:36:36;;;;;;;16.98;5.95;;;;;;;;;;5076396;28;20035;-80
2022/11/15 05:39:04;;;;;;;10.75;5.63;;;;;;;;;;5093826;28;20107;-80
2022/11/15 05:41:36;;;;;;;16.52;5.97;;;;;;;;;;5094369;28;20423;-78
2022/11/15 05:44:03;;;;;;;14.55;5.88;;;;;;;;;;5094681;28;20039;-81
2022/11/15 05:46:29;;;;;;;29.38;6.47;;;;;;;;;;5094010;28;20111;-80
2022/11/15 05:48:55;;;;;;;14.30;5.50;;;;;;;;;;5076273;28;20081;-84
2022/11/15 05:51:21;;;;;;;16.05;6.38;;;;;;;;;;5077057;28;20038;-82
2022/11/15 05:53:47;;;;;;;19.95;7.40;;;;;;;;;;5094419;28;20475;-82
2022/11/15 05:56:13;;;;;;;45.67;11.52;;;;;;;;;;5059911;28;20028;-80
2022/11/15 05:58:38;;;;;;;41.40;10.40;;;;;;;;;;5093317;28;20043;-81
2022/11/15 06:01:04;;;;;;;34.15;10.10;;;;;;;;;;5093391;28;20024;-81
2022/11/15 06:03:29;;;;;;;33.83;9.35;;;;;;;;;;5094565;28;20057;-79
2022/11/15 06:05:56;;;;;;;27.30;8.35;;;;;;;;;;5094559;28;20455;-79
2022/11/15 06:08:21;;;;;;;34.55;7.88;;;;;;;;;;5076548;28;20027;-80
2022/11/15 06:10:47;;;;;;;101.65;9.63;;;;;;;;;;5092996;28;20062;-81
2022/11/15 06:13:12;;;;;;;21.73;8.80;;;;;;;;;;5058935;28;20081;-81
2022/11/15 06:15:38;;;;;;;22.35;7.18;;;;;;;;;;5094156;28;20097;-83
2022/11/15 06:18:03;;;;;;;16.05;6.45;;;;;;;;;;5092456;28;20475;-81
2022/11/15 06:20:29;;;;;;;25.15;6.90;;;;;;;;;;5093963;28;20091;-81
2022/11/15 06:22:59;;;;;;;16.80;6.80;;;;;;;;;;5094173;28;20051;-81
2022/11/15 06:25:25;;;;;;;22.08;6.40;;;;;;;;;;5092630;28;20048;-81
2022/11/15 06:27:58;;;;;;;15.02;6.32;;;;;;;;;;5094272;28;20036;-81
2022/11/15 06:30:24;;;;;;;15.83;6.00;;;;;;;;;;5093775;28;20107;-79
2022/11/15 06:32:49;;;;;;;14.82;6.15;;;;;;;;;;5075776;28;20050;-81
2022/11/15 06:35:15;;;;;;;12.93;5.35;;;;;;;;;;5092433;28;20465;-81
2022/11/15 06:37:41;;;;;;;14.80;5.75;;;;;;;;;;5092692;28;20024;-81
2022/11/15 06:40:08;;;;;;;15.75;5.35;;;;;;;;;;5092535;28;20059;-79
2022/11/15 06:42:33;;;;;;;14.25;5.75;;;;;;;;;;5094048;28;20048;-81
2022/11/15 06:44:59;;;;;;;15.68;5.25;;;;;;;;;;5092616;28;20059;-81
2022/11/15 06:47:24;;;;;;;12.15;5.32;;;;;;;;;;5092644;28;20367;-81
2022/11/15 06:49:49;;;;;;;12.23;5.25;;;;;;;;;;5091727;28;20028;-81
2022/11/15 06:52:15;;;;;;;12.32;4.68;;;;;;;;;;5095202;28;20047;-81
2022/11/15 06:54:40;;;;;;;11.07;5.13;;;;;;;;;;5093139;28;20466;-81
2022/11/15 06:57:05;;;;;;;8.18;4.82;;;;;;;;;;5094439;28;20442;-81
2022/11/15 06:59:31;;;;;;;10.00;4.93;;;;;;;;;;5093843;28;20028;-82
2022/11/15 07:01:56;;;;;;;8.52;4.50;;;;;;;;;;5093573;28;20123;-82
2022/11/15 07:04:21;;;;;;;8.60;4.18;;;;;;;;;;5093158;28;20028;-81
2022/11/15 07:06:48;;;;;;;8.25;4.35;;;;;;;;;;5093997;28;20155;-81
2022/11/15 07:09:13;;;;;;;7.75;4.32;;;;;;;;;;5092178;28;20036;-81
2022/11/15 07:11:38;;;;;;;10.98;4.55;;;;;;;;;;5093702;28;20032;-82
2022/11/15 07:14:04;;;;;;;9.30;4.57;;;;;;;;;;5074957;28;20516;-81
2022/11/15 07:16:29;;;;;;;12.32;4.88;;;;;;;;;;5092462;28;20028;-82
2022/11/15 07:18:55;;;;;;;9.02;4.32;;;;;;;;;;5094113;28;20044;-81
2022/11/15 07:21:20;;;;;;;7.85;4.30;;;;;;;;;;5093563;28;20115;-82
2022/11/15 07:23:45;;;;;;;6.75;4.45;;;;;;;;;;5090936;28;20086;-81
2022/11/15 07:26:11;;;;;;;10.43;4.65;;;;;;;;;;5060496;28;20435;-83
2022/11/15 07:28:36;;;;;;;11.32;4.88;;;;;;;;;;5078882;28;20071;-82
2022/11/15 07:31:06;;;;;;;10.65;4.40;;;;;;;;;;5097412;28;20047;-80
2022/11/15 07:33:31;;;;;;;7.43;4.10;;;;;;;;;;5095476;28;20032;-81
2022/11/15 07:36:04;;;;;;;7.03;4.35;;;;;;;;;;5078579;28;20031;-81
2022/11/15 07:38:29;;;;;;;8.35;4.38;;;;;;;;;;5078975;28;20036;-81
2022/11/15 07:40:59;;;;;;;5.82;4.05;;;;;;;;;;5078202;28;20153;-81
2022/11/15 07:43:27;;;;;;;9.48;4.30;;;;;;;;;;5078353;28;20073;-81
2022/11/15 07:45:53;;;;;;;6.90;4.30;;;;;;;;;;5095468;28;20040;-81
2022/11/15 07:48:18;;;;;;;6.25;4.00;;;;;;;;;;5095119;28;20031;-81
2022/11/15 07:50:43;;;;;;;6.15;3.83;;;;;;;;;;5096133;28;20024;-81
2022/11/15 07:53:10;;;;;;;7.43;4.45;;;;;;;;;;5095597;28;20052;-81
2022/11/15 07:55:35;;;;;;;8.05;4.43;;;;;;;;;;5095398;28;20034;-81
2022/11/15 07:58:09;;;;;;;14.00;4.10;;;;;;;;;;5077984;28;20035;-82
2022/11/15 08:00:35;;;;;;;6.28;3.85;;;;;;;;;;5095036;28;20028;-82
2022/11/15 08:03:10;;;;;;;9.70;3.60;;;;;;;;;;5080257;28;20040;-81
2022/11/15 08:05:39;;;;;;;8.50;4.13;;;;;;;;;;5062422;28;20027;-81
2022/11/15 08:08:05;;;;;;;7.18;3.90;;;;;;;;;;5096721;28;20035;-83
2022/11/15 08:10:31;;;;;;;6.55;3.85;;;;;;;;;;5096537;28;20035;-82
2022/11/15 08:13:01;;;;;;;8.57;4.05;;;;;;;;;;5094840;28;20032;-81
2022/11/15 08:15:28;;;;;;;7.35;4.18;;;;;;;;;;5078685;28;20382;-80
2022/11/15 08:17:55;;;;;;;11.40;3.65;;;;;;;;;;5094912;28;20443;-80
2022/11/15 08:20:20;;;;;;;7.40;3.65;;;;;;;;;;5096411;28;20514;-80
2022/11/15 08:22:45;;;;;;;5.68;3.75;;;;;;;;;;5096103;28;20032;-80
2022/11/15 08:25:11;;;;;;;7.32;4.07;;;;;;;;;;5094342;28;20056;-80
2022/11/15 08:27:36;;;;;;;10.35;3.97;;;;;;;;;;5077446;28;20135;-80
2022/11/15 08:30:02;;;;;;;9.20;3.72;;;;;;;;;;5093990;28;20044;-80
2022/11/15 08:32:28;;;;;;;5.53;3.70;;;;;;;;;;5094178;28;20104;-80
2022/11/15 08:34:53;;;;;;;7.00;3.58;;;;;;;;;;5095665;28;20032;-80
2022/11/15 08:37:19;;;;;;;6.40;3.60;;;;;;;;;;5077490;28;20046;-81
2022/11/15 08:39:44;;;;;;;6.82;3.67;;;;;;;;;;5077797;28;20058;-81
2022/11/15 08:42:09;;;;;;;9.68;3.88;;;;;;;;;;5095555;28;20032;-80
2022/11/15 08:44:35;;;;;;;5.57;3.47;;;;;;;;;;5095475;28;20063;-81
2022/11/15 08:47:00;;;;;;;6.57;3.70;;;;;;;;;;5060457;28;20035;-80
2022/11/15 08:49:25;;;;;;;6.43;3.30;;;;;;;;;;5076912;28;20032;-79
2022/11/15 08:51:51;;;;;;;10.45;3.35;;;;;;;;;;5070022;28;20028;-79
2022/11/15 08:54:16;;;;;;;8.27;3.70;;;;;;;;;;5073523;28;20036;-80
2022/11/15 08:56:42;;;;;;;8.80;3.53;;;;;;;;;;5074712;28;20379;-80
2022/11/15 08:59:07;;;;;;;10.00;4.10;;;;;;;;;;5074400;28;20036;-80
2022/11/15 09:01:32;;;;;;;11.50;3.72;;;;;;;;;;5040158;28;20039;-80
2022/11/15 09:03:58;;;;;;;6.65;3.15;;;;;;;;;;5073280;28;20398;-80
2022/11/15 09:06:23;;;;;;;6.22;3.45;;;;;;;;;;5073138;28;20115;-80
2022/11/15 09:08:49;;;;;;;8.02;3.55;;;;;;;;;;5073413;28;20029;-79
2022/11/15 09:11:16;;;;;;;4.30;3.30;;;;;;;;;;5073256;28;20403;-80
2022/11/15 09:13:41;;;;;;;7.82;3.65;;;;;;;;;;5073027;28;20043;-80
2022/11/15 09:16:07;;;;;;;6.55;3.47;;;;;;;;;;5073599;28;20033;-79
2022/11/15 09:18:32;;;;;;;7.45;3.30;;;;;;;;;;5074030;28;20028;-79
2022/11/15 09:20:58;;;;;;;5.78;3.10;;;;;;;;;;5073251;28;20508;-80
2022/11/15 09:23:25;;;;;;;7.90;3.78;;;;;;;;;;5054091;28;20073;-80
2022/11/15 09:25:51;;;;;;;9.30;3.38;;;;;;;;;;5072767;28;20098;-80
2022/11/15 09:28:16;;;;;;;7.43;3.40;;;;;;;;;;5056085;28;20028;-80
2022/11/15 09:30:41;;;;;;;6.45;3.30;;;;;;;;;;5073944;28;20463;-80
2022/11/15 09:33:08;;;;;;;5.50;3.17;;;;;;;;;;5073806;28;20090;-80
2022/11/15 09:35:33;;;;;;;5.60;3.28;;;;;;;;;;5072785;28;20020;-80
2022/11/15 09:37:59;;;;;;;7.30;3.20;;;;;;;;;;5072853;28;20024;-79
2022/11/15 09:40:26;;;;;;;7.05;3.47;;;;;;;;;;5073997;28;20033;-79
2022/11/15 09:43:19;;;;;;;6.32;3.20;;;;;;;;;;5072465;28;20036;-80
2022/11/15 09:46:18;;;;;;;8.77;3.10;;;;;;;;;;5073747;28;20423;-79
2022/11/15 09:48:49;;;;;;;6.38;3.50;;;;;;;;;;5071444;28;20065;-80
2022/11/15 09:51:24;;;;;;;5.25;3.00;;;;;;;;;;5073632;28;20028;-79
2022/11/15 09:54:01;;;;;;;7.78;4.07;;;;;;;;;;5073887;28;20099;-80
2022/11/15 09:56:29;;;;;;;6.22;3.28;;;;;;;;;;5072245;28;20031;-80
2022/11/15 09:59:07;;;;;;;6.22;3.40;;;;;;;;;;5072224;28;20048;-80
2022/11/15 10:02:00;;;;;;;4.22;2.80;;;;;;;;;;5073445;28;20032;-79
2022/11/15 10:04:26;;;;;;;4.60;3.20;;;;;;;;;;5055711;28;20024;-78
2022/11/15 10:06:58;;;;;;;5.63;2.90;;;;;;;;;;5073817;28;20047;-80
2022/11/15 10:09:26;;;;;;;5.55;3.00;;;;;;;;;;5055979;28;20122;-78
2022/11/15 10:11:52;;;;;;;4.10;2.80;;;;;;;;;;5055333;28;20028;-78
2022/11/15 10:14:21;;;;;;;7.03;3.20;;;;;;;;;;5073521;28;20096;-79
2022/11/15 10:17:14;;;;;;;4.88;2.90;;;;;;;;;;5072197;28;20108;-78
2022/11/15 10:19:52;;;;;;;7.18;3.10;;;;;;;;;;5073374;28;20071;-78
2022/11/15 10:22:47;;;;;;;5.20;3.00;;;;;;;;;;5072276;28;20033;-78
2022/11/15 10:25:14;;;;;;;7.95;3.03;;;;;;;;;;5069140;28;20048;-78
2022/11/15 10:27:41;;;;;;;4.53;2.75;;;;;;;;;;5055258;28;20066;-78
2022/11/15 10:30:15;;;;;;;6.35;2.97;;;;;;;;;;5073464;28;20025;-78
2022/11/15 10:32:42;;;;;;;7.32;3.15;;;;;;;;;;5071899;28;20029;-78
2022/11/15 10:35:19;;;;;;;5.10;2.85;;;;;;;;;;5073269;28;20111;-78
2022/11/15 10:37:44;;;;;;;8.32;3.22;;;;;;;;;;5071395;28;20029;-78
2022/11/15 10:40:22;;;;;;;4.72;2.55;;;;;;;;;;5071771;28;20402;-78
2022/11/15 10:42:49;;;;;;;4.20;2.45;;;;;;;;;;5054998;28;20035;-78
2022/11/15 10:45:31;;;;;;;6.03;2.60;;;;;;;;;;5071933;28;20467;-80
2022/11/15 10:48:11;;;;;;;6.70;2.70;;;;;;;;;;5071583;28;20029;-78
2022/11/15 10:50:37;;;;;;;3.83;2.20;;;;;;;;;;5072654;28;20028;-78
2022/11/15 10:53:03;;;;;;;6.32;2.47;;;;;;;;;;5071791;28;20032;-78
2022/11/15 10:55:31;;;;;;;7.18;2.10;;;;;;;;;;5055308;28;20033;-78
2022/11/15 10:58:04;;;;;;;3.58;2.47;;;;;;;;;;5071811;28;20111;-78
2022/11/15 11:00:33;;;;;;;5.97;2.10;;;;;;;;;;5071567;28;20078;-78
2022/11/15 11:03:00;;;;;;;3.97;2.00;;;;;;;;;;5071249;28;20024;-78
2022/11/15 11:05:33;;;;;;;4.93;2.17;;;;;;;;;;5071647;28;20028;-78
2022/11/15 11:08:22;;;;;;;3.28;2.17;;;;;;;;;;5071228;28;20016;-78
2022/11/15 11:10:56;;;;;;;3.90;2.17;;;;;;;;;;5071271;28;20032;-79
2022/11/15 11:13:23;;;;;;;5.22;1.92;;;;;;;;;;5071232;28;20036;-78
2022/11/15 11:15:55;;;;;;;2.45;1.83;;;;;;;;;;5054429;28;20041;-78
2022/11/15 11:18:50;;;;;;;3.35;2.00;;;;;;;;;;5071124;28;20035;-79
2022/11/15 11:21:22;;;;;;;2.75;2.00;;;;;;;;;;5042397;28;20050;-78
2022/11/15 11:24:15;;;;;;;2.97;1.98;;;;;;;;;;5070982;28;20024;-79
2022/11/15 11:26:41;;;;;;;5.13;1.83;;;;;;;;;;5071924;28;20071;-79
2022/11/15 11:29:18;;;;;;;2.97;1.60;;;;;;;;;;5072515;28;20054;-80
2022/11/15 11:32:01;;;;;;;5.05;1.70;;;;;;;;;;5071071;28;20405;-80
2022/11/15 11:34:39;;;;;;;1.40;1.30;;;;;;;;;;5054404;28;20394;-80
2022/11/15 11:37:10;;;;;;;2.60;1.63;;;;;;;;;;5071071;28;20024;-79
2022/11/15 11:39:54;;;;;;;4.03;1.65;;;;;;;;;;5070974;28;20035;-80
2022/11/15 11:42:37;;;;;;;;;;;;;;;;;;5071139;28;20036;-78
2022/11/15 11:45:21;;;;;;;2.22;1.40;;;;;;;;;;5071804;28;19908;-80
2022/11/15 11:47:51;;;;;;;2.63;1.60;;;;;;;;;;5070757;28;20423;-80
2022/11/15 11:50:24;;;;;;;1.40;1.30;;;;;;;;;;5053785;28;20037;-80
2022/11/15 11:53:11;;;;;;;3.17;1.50;;;;;;;;;;5053908;28;20401;-80
2022/11/15 11:55:46;;;;;;;3.00;1.55;;;;;;;;;;5071913;28;20035;-80
2022/11/15 11:58:18;;;;;;;3.30;1.40;;;;;;;;;;5053975;28;20029;-80
2022/11/15 12:00:51;;;;;;;3.55;1.38;;;;;;;;;;5070866;28;20028;-81
2022/11/15 12:03:35;;;;;;;;;;;;;;;;;;5071354;28;20028;-78
2022/11/15 12:06:04;;;;;;;1.65;1.40;;;;;;;;;;5071998;28;19938;-80
2022/11/15 12:08:59;;;;;;;1.92;1.52;;;;;;;;;;5054614;28;20021;-80
2022/11/15 12:11:30;;;;;;;3.58;1.40;;;;;;;;;;5069334;28;20218;-80
2022/11/15 12:14:01;;;;;;;2.65;1.50;;;;;;;;;;5074214;28;20074;-80
2022/11/15 12:16:28;;;;;;;3.38;1.40;;;;;;;;;;5074831;28;20028;-80
2022/11/15 12:18:57;;;;;;;2.95;1.60;;;;;;;;;;5077918;28;20025;-79
2022/11/15 12:21:43;;;;;;;2.97;1.52;;;;;;;;;;5077118;28;20485;-80
2022/11/15 12:24:18;;;;;;;5.35;1.60;;;;;;;;;;5074654;28;20036;-79
2022/11/15 12:26:58;;;;;;;6.57;1.40;;;;;;;;;;5075742;28;20117;-79
2022/11/15 12:29:31;;;;;;;7.18;1.40;;;;;;;;;;5074228;28;20071;-80
2022/11/15 12:31:59;;;;;;;4.15;1.58;;;;;;;;;;5073985;28;20020;-80
2022/11/15 12:34:28;;;;;;;8.23;1.52;;;;;;;;;;5075026;28;20029;-80
2022/11/15 12:36:53;;;;;;;2.53;1.48;;;;;;;;;;5074422;28;20024;-79
2022/11/15 12:39:19;;;;;;;3.25;1.30;;;;;;;;;;5074795;28;20570;-80
2022/11/15 12:42:16;;;;;;;2.45;1.30;;;;;;;;;;5073555;28;20032;-79
2022/11/15 12:44:42;;;;;;;5.10;1.75;;;;;;;;;;5075733;28;20047;-79
2022/11/15 12:47:10;;;;;;;5.05;1.70;;;;;;;;;;5074734;28;20020;-79
2022/11/15 12:49:35;;;;;;;2.22;1.70;;;;;;;;;;5074860;28;20060;-79
2022/11/15 12:52:00;;;;;;;6.70;2.15;;;;;;;;;;5073465;28;20067;-79
2022/11/15 12:54:28;;;;;;;4.40;2.25;;;;;;;;;;5075248;28;20095;-80
2022/11/15 12:57:02;;;;;;;3.78;1.92;;;;;;;;;;5075393;28;20099;-79
2022/11/15 12:59:47;;;;;;;4.75;2.17;;;;;;;;;;5074627;28;20470;-80
2022/11/15 13:02:22;;;;;;;4.55;2.20;;;;;;;;;;5077200;28;20029;-78
2022/11/15 13:04:48;;;;;;;6.65;2.42;;;;;;;;;;5059580;28;20033;-78
2022/11/15 13:07:39;;;;;;;5.40;2.22;;;;;;;;;;5058730;28;20135;-78
2022/11/15 13:10:10;;;;;;;7.80;2.25;;;;;;;;;;5076274;28;20048;-78
2022/11/15 13:12:40;;;;;;;6.25;2.40;;;;;;;;;;5076411;28;20393;-78
2022/11/15 13:15:11;;;;;;;5.70;2.10;;;;;;;;;;5075784;28;20062;-79
2022/11/15 13:17:43;;;;;;;7.25;2.15;;;;;;;;;;5076754;28;20021;-79
2022/11/15 13:20:18;;;;;;;3.83;2.13;;;;;;;;;;5074973;28;20024;-78
2022/11/15 13:22:57;;;;;;;7.03;2.70;;;;;;;;;;5076342;28;20024;-78
2022/11/15 13:25:48;;;;;;;5.88;2.40;;;;;;;;;;5074523;28;20024;-78
2022/11/15 13:28:13;;;;;;;4.35;2.30;;;;;;;;;;5076538;28;20017;-78
2022/11/15 13:30:40;;;;;;;6.38;2.10;;;;;;;;;;5075851;28;20035;-78
2022/11/15 13:33:19;;;;;;;5.18;2.10;;;;;;;;;;5059273;28;20032;-79
2022/11/15 13:35:53;;;;;;;7.00;2.50;;;;;;;;;;5058542;28;20033;-78
2022/11/15 13:38:26;;;;;;;6.43;2.08;;;;;;;;;;5076147;28;20039;-78
2022/11/15 13:40:52;;;;;;;6.80;2.25;;;;;;;;;;5076122;28;20035;-79
2022/11/15 13:43:20;;;;;;;4.82;2.05;;;;;;;;;;5060172;28;20037;-78
2022/11/15 13:46:09;;;;;;;8.45;2.10;;;;;;;;;;5076882;28;20540;-80
2022/11/15 13:48:35;;;;;;;3.03;1.70;;;;;;;;;;5075574;28;20101;-78
2022/11/15 13:51:15;;;;;;;9.25;2.20;;;;;;;;;;5057805;28;20052;-78
2022/11/15 13:53:46;;;;;;;7.22;2.50;;;;;;;;;;5076304;28;20025;-77
2022/11/15 13:56:12;;;;;;;5.47;2.15;;;;;;;;;;5058927;28;20059;-77
2022/11/15 13:58:39;;;;;;;4.18;1.98;;;;;;;;;;5074730;28;20082;-77
2022/11/15 14:01:05;;;;;;;5.40;2.00;;;;;;;;;;5078512;28;20033;-78
2022/11/15 14:03:41;;;;;;;5.72;1.92;;;;;;;;;;5060957;28;20367;-77
2022/11/15 14:06:14;;;;;;;3.90;1.92;;;;;;;;;;5075105;28;20052;-78
2022/11/15 14:08:40;;;;;;;5.18;2.22;;;;;;;;;;5057943;28;20024;-78
2022/11/15 14:11:15;;;;;;;5.47;1.98;;;;;;;;;;5056508;28;20035;-78
2022/11/15 14:13:41;;;;;;;7.28;2.65;;;;;;;;;;5065579;28;20040;-78
2022/11/15 14:16:20;;;;;;;5.85;1.92;;;;;;;;;;5056390;28;20025;-78
2022/11/15 14:18:50;;;;;;;4.60;1.90;;;;;;;;;;5056453;28;20059;-78
2022/11/15 14:21:16;;;;;;;12.40;1.90;;;;;;;;;;5073877;28;20112;-78
2022/11/15 14:23:41;;;;;;;5.20;1.90;;;;;;;;;;5073150;28;20056;-77
2022/11/15 14:26:25;;;;;;;5.00;2.30;;;;;;;;;;5071829;28;20048;-78
2022/11/15 14:28:50;;;;;;;4.28;1.60;;;;;;;;;;5073014;28;20502;-78
2022/11/15 14:31:16;;;;;;;4.00;1.73;;;;;;;;;;5072949;28;20073;-78
2022/11/15 14:33:41;;;;;;;4.43;1.98;;;;;;;;;;5073107;28;20386;-79
2022/11/15 14:36:19;;;;;;;5.45;2.08;;;;;;;;;;5072756;28;20099;-79
2022/11/15 14:38:45;;;;;;;9.73;2.00;;;;;;;;;;5072248;28;20059;-79
2022/11/15 14:41:18;;;;;;;2.55;1.88;;;;;;;;;;5074875;28;20077;-79
2022/11/15 14:43:44;;;;;;;6.85;2.00;;;;;;;;;;5072549;28;20111;-77
2022/11/15 14:46:09;;;;;;;3.60;1.90;;;;;;;;;;5054546;28;20463;-78
2022/11/15 14:48:34;;;;;;;4.93;2.13;;;;;;;;;;5071422;28;20116;-77
2022/11/15 14:51:00;;;;;;;3.28;1.88;;;;;;;;;;5055170;28;20479;-78
2022/11/15 14:53:25;;;;;;;8.60;2.22;;;;;;;;;;5075641;28;20032;-78
2022/11/15 14:55:51;;;;;;;2.95;1.92;;;;;;;;;;5070327;28;20062;-79
2022/11/15 14:58:16;;;;;;;2.88;2.08;;;;;;;;;;5055709;28;20032;-78
2022/11/15 15:00:42;;;;;;;3.78;1.83;;;;;;;;;;5074493;28;20033;-78
2022/11/15 15:03:07;;;;;;;2.42;1.80;;;;;;;;;;5061238;28;20044;-81